Time;durP1;ratioP1;P1;durP2;ratioP2;P2;SDS_P1;SDS_P2;PMS_P1;PMS_P2;Temp;Humidity;BMP_temperature;BMP_pressure;BME280_temperature;BME280_humidity;BME280_pressure;Samples;Min_cycle;Max_cycle;Signal;HPM_P1;HPM_P2
2023/09/01 00:00:21;;;;;;;6.40;3.75;;;16.60;80.40;;;;;;5052871;28;20116;-91
2023/09/01 00:02:47;;;;;;;6.18;3.47;;;16.60;80.60;;;;;;5048893;28;20025;-91
2023/09/01 00:05:12;;;;;;;6.03;3.35;;;16.60;80.70;;;;;;5052928;28;20013;-91
2023/09/01 00:07:38;;;;;;;6.45;3.28;;;16.60;80.80;;;;;;5048585;28;20123;-91
2023/09/01 00:10:05;;;;;;;5.47;3.45;;;16.60;80.80;;;;;;5050577;28;20480;-91
2023/09/01 00:12:30;;;;;;;6.25;3.33;;;16.60;80.90;;;;;;5048697;28;20028;-90
2023/09/01 00:14:56;;;;;;;7.18;3.33;;;16.60;80.90;;;;;;5060814;28;20078;-92
2023/09/01 00:17:22;;;;;;;5.28;3.35;;;16.60;81.10;;;;;;5035739;28;20153;-92
2023/09/01 00:19:48;;;;;;;6.75;3.83;;;16.60;81.30;;;;;;5038919;28;20028;-92
2023/09/01 00:22:13;;;;;;;6.40;3.80;;;16.50;81.50;;;;;;5031031;28;20051;-91
2023/09/01 00:24:39;;;;;;;9.88;4.30;;;16.50;81.80;;;;;;5054824;28;20062;-92
2023/09/01 00:27:05;;;;;;;5.97;3.58;;;16.50;82.20;;;;;;5053715;28;20483;-92
2023/09/01 00:29:33;;;;;;;7.22;3.58;;;16.50;82.20;;;;;;5043566;28;20059;-92
2023/09/01 00:31:59;;;;;;;6.75;4.35;;;16.50;82.20;;;;;;5035755;28;20015;-91
2023/09/01 00:34:35;;;;;;;6.38;3.55;;;16.40;82.60;;;;;;5035023;28;20203;-92
2023/09/01 00:37:00;;;;;;;5.97;3.63;;;16.40;82.90;;;;;;5035737;28;20584;-91
2023/09/01 00:39:26;;;;;;;7.38;3.30;;;16.40;82.80;;;;;;5050639;28;20159;-92
2023/09/01 00:41:52;;;;;;;7.25;3.08;;;16.40;82.70;;;;;;5069723;28;20029;-92
2023/09/01 00:44:17;;;;;;;6.35;3.00;;;16.40;82.60;;;;;;5055756;28;20151;-91
2023/09/01 00:46:46;;;;;;;5.55;3.03;;;16.50;82.60;;;;;;5047009;28;20029;-91
2023/09/01 00:49:12;;;;;;;8.63;4.60;;;16.50;83.10;;;;;;5045240;28;20064;-91
2023/09/01 00:51:38;;;;;;;6.10;4.40;;;16.50;82.60;;;;;;5059823;28;20021;-91
2023/09/01 00:54:05;;;;;;;9.23;5.30;;;16.50;82.60;;;;;;5036509;28;20055;-91
2023/09/01 00:56:31;;;;;;;9.38;6.05;;;16.40;82.70;;;;;;5053083;28;20138;-91
2023/09/01 00:58:56;;;;;;;11.18;5.32;;;16.40;82.90;;;;;;5054741;28;20025;-91
2023/09/01 01:01:22;;;;;;;8.13;4.95;;;16.50;82.90;;;;;;5053544;28;20025;-91
2023/09/01 01:03:51;;;;;;;9.20;4.97;;;16.50;82.70;;;;;;5038174;28;21729;-90
2023/09/01 01:06:45;;;;;;;7.18;4.50;;;16.50;82.60;;;;;;5049363;28;20101;-91
2023/09/01 01:09:47;;;;;;;6.75;4.75;;;16.60;82.50;;;;;;5034666;28;20822;-91
2023/09/01 01:12:13;;;;;;;8.50;4.63;;;16.50;82.50;;;;;;5055236;28;20041;-88
2023/09/01 01:14:47;;;;;;;7.43;4.90;;;16.50;82.50;;;;;;5053120;28;20036;-90
2023/09/01 01:17:18;;;;;;;9.25;5.20;;;16.50;82.50;;;;;;5035896;28;20640;-90
2023/09/01 01:19:50;;;;;;;10.93;5.38;;;16.40;82.70;;;;;;5053842;28;20096;-91
2023/09/01 01:22:34;;;;;;;;;;;16.40;82.80;;;;;;5053546;28;20028;-92
2023/09/01 01:24:59;;;;;;;8.10;4.82;;;16.40;82.60;;;;;;5053779;28;19905;-92
2023/09/01 01:27:25;;;;;;;8.95;5.85;;;16.30;82.90;;;;;;5053059;28;20151;-92
2023/09/01 01:29:50;;;;;;;9.00;5.10;;;16.30;83.10;;;;;;5053406;28;20025;-91
2023/09/01 01:32:16;;;;;;;8.25;4.80;;;16.30;83.30;;;;;;5052636;28;20021;-91
2023/09/01 01:34:49;;;;;;;9.02;4.95;;;16.30;83.30;;;;;;5053702;28;20052;-91
2023/09/01 01:37:24;;;;;;;9.05;4.90;;;16.30;83.30;;;;;;5067107;28;20083;-92
2023/09/01 01:39:52;;;;;;;9.23;4.97;;;16.30;83.50;;;;;;5055579;28;20368;-91
2023/09/01 01:42:18;;;;;;;8.15;4.65;;;16.20;83.40;;;;;;5060158;28;20460;-91
2023/09/01 01:44:49;;;;;;;8.45;4.90;;;16.30;83.40;;;;;;5033933;28;20435;-91
2023/09/01 01:47:15;;;;;;;7.38;4.20;;;16.20;83.30;;;;;;5044951;28;20061;-91
2023/09/01 01:49:41;;;;;;;9.00;4.55;;;16.30;83.30;;;;;;5046321;28;20032;-91
2023/09/01 01:52:06;;;;;;;8.43;4.70;;;16.30;83.20;;;;;;5054348;28;20025;-91
2023/09/01 01:54:33;;;;;;;6.57;4.30;;;16.20;83.10;;;;;;5058442;28;20518;-90
2023/09/01 01:56:59;;;;;;;9.52;4.90;;;16.20;83.20;;;;;;5053545;28;20064;-90
2023/09/01 01:59:24;;;;;;;9.70;5.03;;;16.10;83.40;;;;;;5047360;28;20024;-90
2023/09/01 02:01:50;;;;;;;6.93;4.00;;;16.00;83.70;;;;;;5044039;28;20013;-91
2023/09/01 02:04:16;;;;;;;7.78;4.32;;;16.00;83.90;;;;;;5043315;28;20025;-90
2023/09/01 02:06:42;;;;;;;6.88;3.72;;;15.90;84.10;;;;;;5034176;28;20402;-91
2023/09/01 02:09:09;;;;;;;7.85;4.50;;;15.90;84.20;;;;;;5048086;28;20025;-90
2023/09/01 02:11:38;;;;;;;7.95;4.32;;;15.90;84.20;;;;;;5039491;28;20051;-90
2023/09/01 02:14:05;;;;;;;7.57;4.30;;;15.90;84.20;;;;;;5051251;28;20442;-90
2023/09/01 02:16:31;;;;;;;6.30;3.78;;;15.80;84.30;;;;;;5051426;28;20120;-90
2023/09/01 02:18:57;;;;;;;7.90;4.63;;;15.80;84.40;;;;;;5054354;28;20112;-90
2023/09/01 02:21:23;;;;;;;6.95;4.32;;;15.80;84.40;;;;;;5050762;28;20086;-89
2023/09/01 02:23:49;;;;;;;6.40;3.97;;;15.80;84.30;;;;;;5032739;28;20025;-89
2023/09/01 02:26:19;;;;;;;7.93;4.30;;;15.80;84.10;;;;;;5054977;28;20081;-90
2023/09/01 02:28:45;;;;;;;7.90;4.35;;;15.80;84.10;;;;;;5043846;28;20147;-91
2023/09/01 02:31:11;;;;;;;8.13;4.13;;;15.80;84.00;;;;;;5042662;28;20028;-90
2023/09/01 02:33:36;;;;;;;5.93;3.80;;;15.80;83.90;;;;;;5036471;28;20434;-91
2023/09/01 02:36:20;;;;;;;8.05;4.18;;;15.80;83.90;;;;;;5050921;28;20037;-89
2023/09/01 02:38:46;;;;;;;8.10;4.93;;;15.80;83.90;;;;;;5049058;28;20066;-89
2023/09/01 02:41:12;;;;;;;8.00;4.97;;;15.80;83.80;;;;;;5047387;28;20033;-89
2023/09/01 02:43:37;;;;;;;6.85;4.10;;;15.70;83.90;;;;;;5048139;28;20056;-89
2023/09/01 02:46:04;;;;;;;7.40;4.45;;;15.60;84.10;;;;;;5047768;28;20037;-88
2023/09/01 02:48:30;;;;;;;7.70;4.25;;;15.60;84.20;;;;;;5032578;28;20494;-89
2023/09/01 02:50:56;;;;;;;7.75;4.45;;;15.60;84.10;;;;;;5050260;28;20029;-88
2023/09/01 02:53:21;;;;;;;7.47;4.40;;;15.50;84.30;;;;;;5050708;28;20028;-89
2023/09/01 02:55:47;;;;;;;7.15;4.70;;;15.50;84.50;;;;;;5038019;28;20038;-89
2023/09/01 02:58:12;;;;;;;8.05;4.57;;;15.50;84.50;;;;;;5050015;28;20689;-89
2023/09/01 03:00:38;;;;;;;10.60;4.75;;;15.50;84.80;;;;;;5055032;28;20029;-88
2023/09/01 03:03:04;;;;;;;6.15;4.50;;;15.50;85.00;;;;;;5049786;28;20040;-89
2023/09/01 03:05:29;;;;;;;8.50;4.32;;;15.40;85.10;;;;;;5033192;28;20043;-89
2023/09/01 03:07:57;;;;;;;7.00;4.05;;;15.40;85.90;;;;;;5049077;28;20028;-91
2023/09/01 03:10:23;;;;;;;6.50;4.03;;;15.40;85.40;;;;;;5047668;28;20029;-92
2023/09/01 03:12:49;;;;;;;8.13;4.50;;;15.50;85.50;;;;;;5049445;28;20074;-92
2023/09/01 03:15:15;;;;;;;8.10;4.47;;;15.50;85.30;;;;;;5054028;28;20025;-89
2023/09/01 03:17:40;;;;;;;7.63;4.28;;;15.50;85.30;;;;;;5048749;28;20653;-91
2023/09/01 03:20:09;;;;;;;8.00;4.60;;;15.50;85.30;;;;;;5054999;28;20064;-89
2023/09/01 03:22:36;;;;;;;6.35;4.22;;;15.50;85.40;;;;;;5014456;28;20487;-90
2023/09/01 03:25:01;;;;;;;7.10;3.90;;;15.40;85.70;;;;;;5058781;28;20104;-90
2023/09/01 03:27:27;;;;;;;6.80;4.13;;;15.40;85.80;;;;;;5051075;28;20107;-89
2023/09/01 03:29:54;;;;;;;6.47;3.90;;;15.40;85.80;;;;;;5052181;28;20487;-89
2023/09/01 03:32:20;;;;;;;6.25;4.28;;;15.40;85.80;;;;;;5070805;28;20017;-89
2023/09/01 03:34:46;;;;;;;8.52;4.38;;;15.40;85.80;;;;;;5052970;28;20119;-89
2023/09/01 03:37:13;;;;;;;7.88;4.45;;;15.40;85.70;;;;;;5056456;28;20479;-90
2023/09/01 03:39:39;;;;;;;7.82;4.00;;;15.40;85.80;;;;;;5044159;28;20021;-89
2023/09/01 03:42:05;;;;;;;6.80;4.70;;;15.40;85.90;;;;;;5049601;28;20112;-89
2023/09/01 03:44:30;;;;;;;6.78;4.05;;;15.40;85.90;;;;;;5050437;28;20024;-89
2023/09/01 03:46:58;;;;;;;9.57;4.40;;;15.40;86.00;;;;;;5051781;28;20037;-89
2023/09/01 03:49:26;;;;;;;9.27;4.60;;;15.50;86.00;;;;;;5041718;28;20021;-90
2023/09/01 03:51:52;;;;;;;7.40;4.80;;;15.40;86.10;;;;;;5065219;28;20643;-90
2023/09/01 03:54:17;;;;;;;7.18;5.00;;;15.40;86.30;;;;;;5038922;28;20039;-92
2023/09/01 03:56:43;;;;;;;8.02;5.43;;;15.40;86.50;;;;;;5067803;28;20033;-91
2023/09/01 03:59:08;;;;;;;7.88;4.82;;;15.40;86.60;;;;;;5037641;28;20036;-91
2023/09/01 04:01:34;;;;;;;7.45;4.82;;;15.40;86.80;;;;;;5046044;28;20036;-91
2023/09/01 04:04:01;;;;;;;8.95;4.85;;;15.40;87.00;;;;;;5054072;28;20033;-91
2023/09/01 04:06:27;;;;;;;8.40;5.63;;;15.30;87.20;;;;;;5036671;28;20119;-90
2023/09/01 04:08:52;;;;;;;9.10;5.07;;;15.30;87.40;;;;;;5037560;28;20112;-91
2023/09/01 04:11:18;;;;;;;8.60;5.78;;;15.30;87.50;;;;;;5053317;28;20017;-90
2023/09/01 04:13:44;;;;;;;8.20;5.07;;;15.30;87.60;;;;;;5054912;28;20060;-90
2023/09/01 04:16:09;;;;;;;8.63;5.57;;;15.40;87.70;;;;;;5041545;28;20041;-89
2023/09/01 04:18:35;;;;;;;9.40;5.32;;;15.40;87.60;;;;;;5061709;28;20028;-89
2023/09/01 04:21:02;;;;;;;9.32;6.00;;;15.30;87.70;;;;;;5054544;28;20029;-89
2023/09/01 04:23:27;;;;;;;12.70;7.25;;;15.30;87.90;;;;;;5054115;28;20036;-92
2023/09/01 04:25:53;;;;;;;7.28;5.47;;;15.30;88.00;;;;;;5057843;28;20021;-91
2023/09/01 04:28:19;;;;;;;8.93;5.78;;;15.40;88.00;;;;;;5034649;28;20552;-90
2023/09/01 04:30:45;;;;;;;8.00;5.43;;;15.40;87.90;;;;;;5057823;28;20036;-91
2023/09/01 04:33:12;;;;;;;8.60;4.97;;;15.40;87.90;;;;;;5054702;28;20519;-91
2023/09/01 04:35:38;;;;;;;8.77;5.05;;;15.50;87.90;;;;;;5055362;28;20029;-90
2023/09/01 04:38:03;;;;;;;10.23;5.63;;;15.50;87.70;;;;;;5054987;28;20036;-90
2023/09/01 04:40:30;;;;;;;9.45;6.65;;;15.50;87.60;;;;;;5042797;28;20503;-90
2023/09/01 04:42:58;;;;;;;10.05;7.05;;;15.50;87.70;;;;;;5038084;28;20041;-90
2023/09/01 04:45:24;;;;;;;10.15;6.15;;;15.40;88.00;;;;;;5050245;28;20509;-91
2023/09/01 04:47:56;;;;;;;9.13;6.10;;;15.50;88.00;;;;;;5068274;28;20025;-91
2023/09/01 04:50:22;;;;;;;10.68;6.00;;;15.50;88.00;;;;;;5045564;28;20039;-91
2023/09/01 04:52:48;;;;;;;9.38;5.95;;;15.50;87.80;;;;;;5038781;28;20084;-91
2023/09/01 04:55:14;;;;;;;11.05;6.10;;;15.50;87.70;;;;;;5043796;28;20083;-91
2023/09/01 04:57:39;;;;;;;7.47;5.15;;;15.50;87.60;;;;;;5041042;28;20030;-90
2023/09/01 05:00:15;;;;;;;8.38;5.60;;;15.60;87.70;;;;;;5039907;28;20056;-88
2023/09/01 05:02:42;;;;;;;8.45;6.20;;;15.60;87.50;;;;;;5052130;28;20029;-88
2023/09/01 05:05:08;;;;;;;8.80;5.63;;;15.50;87.60;;;;;;5052807;28;20548;-88
2023/09/01 05:07:34;;;;;;;7.93;5.57;;;15.50;87.80;;;;;;5052043;28;20032;-87
2023/09/01 05:09:59;;;;;;;9.20;5.97;;;15.60;87.80;;;;;;5050364;28;20025;-88
2023/09/01 05:12:25;;;;;;;7.85;4.93;;;15.60;87.70;;;;;;5056070;28;20078;-88
2023/09/01 05:14:50;;;;;;;8.25;5.35;;;15.70;87.60;;;;;;5044656;28;20032;-88
2023/09/01 05:17:16;;;;;;;10.10;6.68;;;15.70;87.50;;;;;;5052418;28;20032;-88
2023/09/01 05:19:42;;;;;;;9.60;6.07;;;15.60;87.70;;;;;;5051513;28;20025;-87
2023/09/01 05:22:07;;;;;;;7.97;5.35;;;15.60;87.80;;;;;;5058329;28;20056;-88
2023/09/01 05:24:33;;;;;;;9.77;6.35;;;15.60;87.70;;;;;;5062181;28;20028;-88
2023/09/01 05:26:58;;;;;;;10.00;6.85;;;15.50;88.20;;;;;;5049052;28;20102;-87
2023/09/01 05:29:24;;;;;;;12.60;7.38;;;15.50;88.60;;;;;;5051374;28;20043;-88
2023/09/01 05:31:50;;;;;;;9.70;6.18;;;15.40;89.10;;;;;;5050949;28;20625;-88
2023/09/01 05:34:16;;;;;;;7.60;5.82;;;15.40;89.10;;;;;;5046860;28;20057;-88
2023/09/01 05:36:41;;;;;;;9.43;6.13;;;15.50;89.70;;;;;;5050494;28;20508;-88
2023/09/01 05:39:07;;;;;;;10.30;6.40;;;15.50;89.10;;;;;;5034161;28;20100;-87
2023/09/01 05:41:32;;;;;;;8.90;6.20;;;15.50;89.10;;;;;;5036261;28;20055;-88
2023/09/01 05:43:58;;;;;;;9.63;5.80;;;15.50;89.20;;;;;;5040647;28;20017;-88
2023/09/01 05:46:23;;;;;;;8.77;5.72;;;15.50;89.20;;;;;;5050978;28;20025;-87
2023/09/01 05:48:49;;;;;;;11.02;6.72;;;15.50;89.20;;;;;;5055245;28;20378;-89
2023/09/01 05:51:15;;;;;;;8.95;5.60;;;15.50;89.30;;;;;;5045250;28;20063;-89
2023/09/01 05:53:40;;;;;;;9.15;6.20;;;15.50;89.40;;;;;;5052066;28;20024;-86
2023/09/01 05:56:06;;;;;;;9.57;6.18;;;15.50;89.40;;;;;;5049328;28;20384;-87
2023/09/01 05:58:33;;;;;;;10.27;6.13;;;15.60;89.30;;;;;;5052842;28;20071;-88
2023/09/01 06:00:59;;;;;;;11.88;6.90;;;15.70;89.30;;;;;;5066214;28;20025;-89
2023/09/01 06:03:25;;;;;;;10.40;6.90;;;15.60;89.40;;;;;;5046587;28;20024;-90
2023/09/01 06:05:50;;;;;;;10.15;6.57;;;15.60;89.60;;;;;;5046263;28;20222;-91
2023/09/01 06:08:16;;;;;;;9.10;6.25;;;15.60;89.80;;;;;;5051662;28;20033;-91
2023/09/01 06:10:41;;;;;;;8.60;5.57;;;15.70;89.70;;;;;;5055292;28;20059;-87
2023/09/01 06:13:07;;;;;;;11.95;7.05;;;15.70;89.70;;;;;;5056331;28;20471;-87
2023/09/01 06:15:34;;;;;;;11.05;6.43;;;15.70;89.80;;;;;;5050606;28;20039;-86
2023/09/01 06:17:59;;;;;;;10.02;5.88;;;15.70;89.70;;;;;;5041148;28;20043;-89
2023/09/01 06:20:25;;;;;;;10.90;6.15;;;15.80;89.70;;;;;;5054350;28;20029;-89
2023/09/01 06:22:53;;;;;;;9.63;5.93;;;15.80;89.70;;;;;;5032634;28;20029;-89
2023/09/01 06:25:21;;;;;;;8.27;5.10;;;15.80;89.80;;;;;;5035379;28;20040;-87
2023/09/01 06:27:47;;;;;;;8.30;5.38;;;15.80;89.70;;;;;;5059501;28;20059;-87
2023/09/01 06:30:13;;;;;;;10.55;6.50;;;15.90;89.70;;;;;;5061886;28;20013;-87
2023/09/01 06:32:39;;;;;;;9.20;6.20;;;15.90;89.50;;;;;;5039761;28;20067;-87
2023/09/01 06:35:05;;;;;;;10.93;6.38;;;16.10;89.20;;;;;;5042365;28;20025;-87
2023/09/01 06:37:30;;;;;;;8.10;5.35;;;16.20;89.00;;;;;;5049405;28;20052;-87
2023/09/01 06:40:03;;;;;;;8.00;5.55;;;16.30;88.60;;;;;;5049836;28;20049;-88
2023/09/01 06:42:31;;;;;;;;;;;16.50;88.20;;;;;;5033173;28;20017;-90
2023/09/01 06:44:56;;;;;;;12.10;5.95;;;16.70;87.70;;;;;;5050657;28;19912;-90
2023/09/01 06:47:22;;;;;;;9.63;6.10;;;16.90;87.00;;;;;;5050548;28;20033;-90
2023/09/01 06:49:48;;;;;;;7.40;5.07;;;16.90;86.30;;;;;;5051416;28;20021;-87
2023/09/01 06:52:14;;;;;;;9.93;5.95;;;16.80;86.20;;;;;;5046079;28;20036;-86
2023/09/01 06:54:40;;;;;;;8.70;5.80;;;16.80;86.40;;;;;;5026643;28;20964;-86
2023/09/01 06:57:05;;;;;;;11.93;6.18;;;16.60;86.70;;;;;;5048371;28;20044;-84
2023/09/01 06:59:31;;;;;;;9.13;6.35;;;16.70;87.10;;;;;;5047069;28;20051;-84
2023/09/01 07:01:56;;;;;;;10.93;6.32;;;16.70;86.90;;;;;;5043534;28;20048;-84
2023/09/01 07:04:22;;;;;;;9.20;5.88;;;16.70;86.90;;;;;;5050148;28;20436;-83
2023/09/01 07:06:47;;;;;;;8.27;5.43;;;16.80;87.00;;;;;;5045599;28;20033;-84
2023/09/01 07:09:13;;;;;;;10.23;5.80;;;16.90;87.00;;;;;;5050458;28;20055;-84
2023/09/01 07:11:39;;;;;;;8.48;5.22;;;17.00;86.80;;;;;;5031323;28;20108;-90
2023/09/01 07:14:04;;;;;;;9.18;5.15;;;17.00;86.50;;;;;;5040826;28;20491;-87
2023/09/01 07:16:30;;;;;;;9.30;5.50;;;17.20;86.40;;;;;;5047342;28;20044;-88
2023/09/01 07:18:55;;;;;;;10.20;5.05;;;17.30;86.00;;;;;;5046317;28;20021;-85
2023/09/01 07:21:21;;;;;;;8.88;5.93;;;17.40;85.80;;;;;;5033605;28;20029;-88
2023/09/01 07:23:48;;;;;;;8.85;5.90;;;17.30;85.50;;;;;;5037119;28;20025;-87
2023/09/01 07:26:14;;;;;;;9.18;5.95;;;17.30;85.50;;;;;;5036727;28;20375;-81
2023/09/01 07:28:40;;;;;;;9.05;5.65;;;17.30;85.50;;;;;;5049706;28;20086;-81
2023/09/01 07:31:12;;;;;;;7.75;4.82;;;17.30;85.70;;;;;;5049186;28;20037;-81
2023/09/01 07:33:41;;;;;;;9.88;6.10;;;17.40;85.70;;;;;;5047929;28;20013;-82
2023/09/01 07:36:09;;;;;;;8.43;5.45;;;17.30;85.60;;;;;;5031453;28;20044;-82
2023/09/01 07:38:34;;;;;;;9.40;5.22;;;17.30;85.90;;;;;;5033461;28;20021;-81
2023/09/01 07:41:00;;;;;;;11.38;6.00;;;17.30;86.00;;;;;;5048207;28;20031;-83
2023/09/01 07:43:26;;;;;;;7.75;4.90;;;17.30;86.00;;;;;;5052590;28;20430;-81
2023/09/01 07:45:51;;;;;;;9.60;6.07;;;17.40;86.20;;;;;;5051782;28;20095;-83
2023/09/01 07:48:17;;;;;;;9.13;5.20;;;17.40;86.00;;;;;;5051757;28;20017;-82
2023/09/01 07:50:42;;;;;;;8.15;5.50;;;17.40;86.10;;;;;;5050703;28;20116;-82
2023/09/01 07:53:08;;;;;;;7.95;5.50;;;17.50;86.20;;;;;;5048199;28;20078;-84
2023/09/01 07:55:33;;;;;;;8.05;5.85;;;17.60;86.00;;;;;;5042626;28;20025;-83
2023/09/01 07:57:59;;;;;;;7.40;5.57;;;17.60;85.70;;;;;;5048399;28;20069;-83
2023/09/01 08:00:25;;;;;;;8.98;6.10;;;17.60;85.70;;;;;;5050350;28;20120;-82
2023/09/01 08:02:51;;;;;;;7.90;5.30;;;17.60;85.70;;;;;;5030267;28;20025;-85
2023/09/01 08:05:17;;;;;;;8.23;6.13;;;17.60;85.90;;;;;;5032444;28;20017;-86
2023/09/01 08:07:42;;;;;;;9.70;6.50;;;17.50;86.00;;;;;;5051390;28;20021;-87
2023/09/01 08:10:10;;;;;;;9.95;6.45;;;17.40;86.50;;;;;;5036130;28;20134;-91
2023/09/01 08:12:35;;;;;;;11.85;6.15;;;17.40;86.80;;;;;;5033743;28;20032;-91
2023/09/01 08:15:01;;;;;;;8.55;5.80;;;17.50;87.00;;;;;;5055238;28;20583;-92
2023/09/01 08:17:27;;;;;;;11.13;6.75;;;17.50;87.10;;;;;;5055536;28;20178;-93
2023/09/01 08:19:52;;;;;;;9.40;6.78;;;17.40;87.20;;;;;;5042394;28;20025;-92
2023/09/01 08:22:21;;;;;;;10.00;6.22;;;17.40;87.40;;;;;;5061066;28;20036;-94
2023/09/01 08:24:46;;;;;;;9.65;6.32;;;17.40;87.60;;;;;;5039165;28;20405;-90
2023/09/01 08:27:12;;;;;;;10.73;6.25;;;17.40;87.70;;;;;;5032074;28;20060;-86
2023/09/01 08:29:38;;;;;;;9.15;6.30;;;17.50;87.60;;;;;;5036084;28;20033;-92
2023/09/01 08:32:05;;;;;;;10.30;6.72;;;17.50;87.60;;;;;;5052371;28;20029;-91
2023/09/01 08:34:31;;;;;;;6.43;4.80;;;17.50;87.70;;;;;;5036516;28;20013;-92
2023/09/01 08:37:01;;;;;;;7.68;6.03;;;17.70;87.70;;;;;;5043417;28;20512;-92
2023/09/01 08:39:27;;;;;;;8.40;5.18;;;17.80;87.20;;;;;;5036705;28;20045;-93
2023/09/01 08:41:55;;;;;;;8.55;6.20;;;17.90;86.90;;;;;;5051503;28;20044;-92
2023/09/01 08:44:27;;;;;;;8.77;5.25;;;17.90;86.90;;;;;;5036092;28;20053;-92
2023/09/01 08:46:53;;;;;;;10.10;6.20;;;17.90;86.70;;;;;;5033722;28;20104;-94
2023/09/01 08:49:24;;;;;;;8.07;6.20;;;17.80;86.70;;;;;;5034902;28;20033;-92
2023/09/01 08:51:55;;;;;;;9.07;6.70;;;17.90;87.00;;;;;;5035699;28;20042;-90
2023/09/01 08:54:33;;;;;;;7.60;5.18;;;17.90;86.80;;;;;;5053284;28;20480;-92
2023/09/01 08:56:59;;;;;;;7.55;5.00;;;17.90;87.00;;;;;;5066039;28;20036;-93
2023/09/01 08:59:28;;;;;;;8.23;5.03;;;18.00;86.70;;;;;;5044814;28;20025;-94
2023/09/01 09:02:07;;;;;;;7.75;4.88;;;18.10;86.40;;;;;;5034089;28;20486;-93
2023/09/01 09:04:34;;;;;;;8.07;5.22;;;18.20;86.20;;;;;;5052032;28;20013;-93
2023/09/01 09:07:15;;;;;;;8.73;5.70;;;18.20;86.10;;;;;;5032428;28;20017;-93
2023/09/01 09:09:59;;;;;;;7.03;5.10;;;18.20;85.60;;;;;;5053271;28;20025;-94
2023/09/01 09:12:43;;;;;;;9.18;5.90;;;18.20;85.70;;;;;;5032759;28;20013;-94
2023/09/01 09:15:18;;;;;;;8.50;5.25;;;18.20;85.80;;;;;;5036229;28;20083;-93
2023/09/01 09:17:46;;;;;;;10.13;6.57;;;18.20;85.60;;;;;;5035011;28;20102;-92
2023/09/01 09:20:19;;;;;;;8.95;5.80;;;18.20;85.50;;;;;;5033506;28;20497;-92
2023/09/01 09:22:56;;;;;;;6.95;5.10;;;18.10;85.80;;;;;;5036449;28;20120;-91
2023/09/01 09:25:29;;;;;;;8.88;6.03;;;18.20;85.80;;;;;;5052402;28;20079;-92
2023/09/01 09:27:59;;;;;;;12.48;6.35;;;18.20;85.80;;;;;;5036558;28;20033;-93
2023/09/01 09:30:28;;;;;;;10.10;7.10;;;18.20;85.90;;;;;;5050709;28;20097;-94
2023/09/01 09:33:07;;;;;;;8.07;5.30;;;18.10;86.10;;;;;;5035293;28;20028;-93
2023/09/01 09:35:34;;;;;;;8.43;5.55;;;18.20;86.30;;;;;;5053461;28;20075;-91
2023/09/01 09:38:00;;;;;;;8.02;5.28;;;18.30;86.10;;;;;;5030827;28;20033;-93
2023/09/01 09:40:27;;;;;;;9.88;6.72;;;18.30;85.80;;;;;;5038850;28;20025;-95
2023/09/01 09:42:57;;;;;;;8.80;5.97;;;18.30;85.70;;;;;;5036959;28;20041;-91
2023/09/01 09:45:28;;;;;;;8.30;6.03;;;18.20;85.90;;;;;;5035479;28;20049;-91
2023/09/01 09:47:56;;;;;;;9.40;7.03;;;18.20;86.00;;;;;;5049715;28;20017;-89
2023/09/01 09:50:22;;;;;;;9.02;6.00;;;18.20;86.50;;;;;;5033109;28;20426;-91
2023/09/01 09:52:49;;;;;;;9.57;6.80;;;18.20;86.70;;;;;;5038156;28;20025;-92
2023/09/01 09:55:44;;;;;;;11.80;6.22;;;18.10;86.70;;;;;;5048144;28;20048;-90
2023/09/01 09:58:10;;;;;;;9.90;6.20;;;18.10;86.90;;;;;;5042976;28;20106;-84
2023/09/01 10:00:42;;;;;;;8.88;5.75;;;18.10;87.10;;;;;;5043814;28;20033;-83
2023/09/01 10:03:08;;;;;;;9.57;6.38;;;18.20;87.20;;;;;;5045779;28;20021;-83
2023/09/01 10:05:34;;;;;;;10.23;6.18;;;18.10;87.20;;;;;;5045222;28;20549;-82
2023/09/01 10:08:06;;;;;;;8.05;6.10;;;18.20;87.20;;;;;;5047126;28;20055;-82
2023/09/01 10:10:34;;;;;;;7.45;5.97;;;18.30;87.20;;;;;;5046981;28;20024;-82
2023/09/01 10:13:02;;;;;;;10.68;6.18;;;18.30;87.00;;;;;;5047502;28;20041;-82
2023/09/01 10:15:30;;;;;;;8.45;6.13;;;18.30;87.20;;;;;;5043089;28;20044;-82
2023/09/01 10:18:00;;;;;;;9.52;6.70;;;18.30;87.30;;;;;;5047622;28;20484;-82
2023/09/01 10:20:27;;;;;;;10.32;5.95;;;18.20;87.40;;;;;;5029340;28;20047;-83
2023/09/01 10:22:54;;;;;;;8.73;5.93;;;18.20;87.80;;;;;;5046944;28;20025;-82
2023/09/01 10:25:20;;;;;;;8.90;6.85;;;18.30;87.80;;;;;;5044480;28;20025;-83
2023/09/01 10:28:06;;;;;;;7.78;5.70;;;18.10;88.10;;;;;;5045410;28;20554;-82
2023/09/01 10:30:40;;;;;;;9.25;6.78;;;18.10;88.70;;;;;;5025607;28;20391;-82
2023/09/01 10:33:08;;;;;;;8.25;6.68;;;18.10;89.20;;;;;;5043982;28;20246;-82
2023/09/01 10:35:42;;;;;;;9.68;6.78;;;18.10;89.30;;;;;;5027637;28;20025;-83
2023/09/01 10:38:15;;;;;;;7.47;6.00;;;18.00;89.60;;;;;;5030005;28;20028;-84
2023/09/01 10:40:52;;;;;;;8.38;7.30;;;18.10;89.80;;;;;;5048084;28;20035;-83
2023/09/01 10:43:39;;;;;;;8.57;6.25;;;18.00;90.10;;;;;;5046778;28;20028;-83
2023/09/01 10:46:17;;;;;;;7.10;5.50;;;18.00;90.10;;;;;;5029960;28;20033;-84
2023/09/01 10:48:58;;;;;;;8.77;5.97;;;18.10;90.10;;;;;;5042809;28;20071;-84
2023/09/01 10:51:27;;;;;;;7.15;5.07;;;18.20;90.10;;;;;;5046998;28;20104;-84
2023/09/01 10:53:57;;;;;;;7.00;6.07;;;18.10;90.00;;;;;;5047453;28;20025;-82
2023/09/01 10:56:24;;;;;;;7.18;5.90;;;18.20;90.00;;;;;;5039926;28;20043;-82
2023/09/01 10:58:53;;;;;;;8.77;6.07;;;18.20;90.10;;;;;;5028871;28;20017;-83
2023/09/01 11:01:35;;;;;;;7.28;6.13;;;18.10;90.30;;;;;;5031405;28;20510;-85
2023/09/01 11:04:13;;;;;;;7.45;5.65;;;18.20;90.50;;;;;;5027342;28;20024;-82
2023/09/01 11:07:00;;;;;;;7.60;5.85;;;18.20;90.50;;;;;;5045328;28;20672;-82
2023/09/01 11:09:34;;;;;;;7.15;6.10;;;18.20;90.50;;;;;;5039891;28;20034;-82
2023/09/01 11:12:05;;;;;;;7.53;5.85;;;18.30;90.50;;;;;;5030807;28;20036;-84
2023/09/01 11:14:35;;;;;;;6.50;4.97;;;18.30;90.50;;;;;;5041926;28;20040;-83
2023/09/01 11:17:03;;;;;;;5.60;5.03;;;18.40;90.40;;;;;;5028297;28;20043;-83
2023/09/01 11:19:32;;;;;;;8.60;7.15;;;18.40;90.40;;;;;;5028682;28;20025;-83
2023/09/01 11:21:59;;;;;;;6.95;5.75;;;18.30;90.50;;;;;;5041302;28;20025;-83
2023/09/01 11:24:24;;;;;;;6.13;5.00;;;18.20;90.70;;;;;;5045268;28;20051;-83
2023/09/01 11:26:51;;;;;;;6.32;4.93;;;18.20;90.70;;;;;;5043323;28;20495;-82
2023/09/01 11:29:21;;;;;;;7.80;7.00;;;18.30;90.70;;;;;;5041284;28;20617;-81
2023/09/01 11:31:47;;;;;;;6.60;5.70;;;18.30;90.70;;;;;;5044778;28;20435;-83
2023/09/01 11:34:14;;;;;;;6.13;5.53;;;18.40;90.60;;;;;;5044812;28;20075;-83
2023/09/01 11:36:46;;;;;;;5.93;5.30;;;18.40;90.50;;;;;;5043893;28;20041;-83
2023/09/01 11:39:12;;;;;;;5.88;5.28;;;18.50;90.60;;;;;;5045507;28;20040;-83
2023/09/01 11:41:40;;;;;;;6.38;4.90;;;18.50;90.30;;;;;;5043857;28;20029;-84
2023/09/01 11:44:07;;;;;;;7.05;6.03;;;18.60;90.20;;;;;;5025755;28;20120;-84
2023/09/01 11:46:35;;;;;;;5.88;5.18;;;18.50;90.10;;;;;;5040922;28;20032;-84
2023/09/01 11:49:03;;;;;;;8.50;5.43;;;18.40;90.30;;;;;;5043610;28;20041;-84
2023/09/01 11:51:34;;;;;;;7.70;6.90;;;18.40;90.40;;;;;;5023314;28;20098;-84
2023/09/01 11:53:59;;;;;;;7.90;6.78;;;18.40;90.50;;;;;;5046498;28;20027;-83
2023/09/01 11:56:25;;;;;;;9.55;7.03;;;18.50;90.60;;;;;;5030413;28;20037;-86
2023/09/01 11:58:52;;;;;;;8.50;7.68;;;18.50;90.70;;;;;;5026482;28;20537;-87
2023/09/01 12:01:20;;;;;;;8.50;7.55;;;18.50;90.80;;;;;;5028197;28;20033;-87
2023/09/01 12:03:53;;;;;;;9.05;8.07;;;18.60;90.60;;;;;;5045505;28;20025;-87
2023/09/01 12:06:20;;;;;;;11.05;9.10;;;18.70;90.60;;;;;;5047858;28;20071;-83
2023/09/01 12:08:46;;;;;;;7.20;6.50;;;18.80;90.60;;;;;;5028624;28;20033;-82
2023/09/01 12:11:13;;;;;;;9.38;8.10;;;18.90;90.40;;;;;;5049808;28;20056;-82
2023/09/01 12:13:39;;;;;;;10.40;9.15;;;19.10;90.20;;;;;;5049049;28;20047;-82
2023/09/01 12:16:05;;;;;;;10.65;8.02;;;19.20;90.00;;;;;;5047113;28;20028;-81
2023/09/01 12:18:38;;;;;;;9.35;8.38;;;19.30;89.60;;;;;;5048000;28;20021;-81
2023/09/01 12:21:06;;;;;;;8.05;7.03;;;19.40;89.30;;;;;;5046367;28;20079;-81
2023/09/01 12:23:33;;;;;;;7.72;5.70;;;19.50;88.90;;;;;;5049076;28;20112;-81
2023/09/01 12:26:01;;;;;;;9.20;8.20;;;19.70;88.50;;;;;;5049627;28;20041;-81
2023/09/01 12:28:28;;;;;;;10.18;8.20;;;19.60;88.00;;;;;;5046829;28;20025;-83
2023/09/01 12:30:57;;;;;;;9.07;8.18;;;19.70;87.80;;;;;;5048074;28;20024;-82
2023/09/01 12:33:23;;;;;;;9.43;8.43;;;19.80;87.50;;;;;;5047491;28;20031;-83
2023/09/01 12:35:51;;;;;;;8.80;7.50;;;19.80;87.10;;;;;;5049664;28;20120;-84
2023/09/01 12:38:18;;;;;;;7.75;6.95;;;19.90;87.10;;;;;;5046080;28;20144;-84
2023/09/01 12:40:44;;;;;;;7.60;6.80;;;20.00;86.70;;;;;;5047204;28;20056;-82
2023/09/01 12:43:09;;;;;;;9.27;7.75;;;20.20;86.20;;;;;;5048282;28;20025;-84
2023/09/01 12:45:35;;;;;;;6.63;5.78;;;20.40;85.80;;;;;;5046114;28;20036;-82
2023/09/01 12:48:01;;;;;;;7.72;6.18;;;20.60;85.20;;;;;;5048209;28;20029;-84